sensor_id;sensor_type;location;lat;lon;timestamp;pressure;altitude;pressure_sealevel;temperature;humidity
14757;BME280;62446;53.214;10.398;2022-10-16T16:39:04;101481.56;;;12.55;67.46
14757;BME280;62446;53.214;10.398;2022-10-16T16:42:08;101488.56;;;12.76;66.51
14757;BME280;62446;53.214;10.398;2022-10-16T16:45:12;101506.03;;;12.77;66.62
14757;BME280;62446;53.214;10.398;2022-10-16T16:48:16;101510.56;;;12.71;65.89
14757;BME280;62446;53.214;10.398;2022-10-16T16:51:19;101514.47;;;12.63;66.26
14757;BME280;62446;53.214;10.398;2022-10-16T16:54:24;101518.31;;;12.62;66.11
14757;BME280;62446;53.214;10.398;2022-10-16T16:57:28;101519.47;;;12.55;66.11
14757;BME280;62446;53.214;10.398;2022-10-16T17:00:32;101524.59;;;12.51;65.76
14757;BME280;62446;53.214;10.398;2022-10-16T17:03:35;101533.56;;;12.46;65.29
14757;BME280;62446;53.214;10.398;2022-10-16T17:06:39;101533.84;;;12.38;65.97
14757;BME280;62446;53.214;10.398;2022-10-16T17:09:44;101543.47;;;12.29;66.55
14757;BME280;62446;53.214;10.398;2022-10-16T17:12:48;101556.69;;;12.27;66.56
14757;BME280;62446;53.214;10.398;2022-10-16T17:15:53;101556.81;;;12.13;67.34
14757;BME280;62446;53.214;10.398;2022-10-16T17:18:59;101561.53;;;12.06;67.48
14757;BME280;62446;53.214;10.398;2022-10-16T17:22:03;101562.84;;;11.97;67.69
14757;BME280;62446;53.214;10.398;2022-10-16T17:25:08;101563.13;;;11.89;67.08
14757;BME280;62446;53.214;10.398;2022-10-16T17:28:13;101572.94;;;11.78;68.58
14757;BME280;62446;53.214;10.398;2022-10-16T17:31:18;101567.72;;;11.63;68.95
14757;BME280;62446;53.214;10.398;2022-10-16T17:34:23;101576.25;;;11.55;68.92
14757;BME280;62446;53.214;10.398;2022-10-16T17:37:26;101586.38;;;11.29;69.97
14757;BME280;62446;53.214;10.398;2022-10-16T17:40:31;101596.16;;;11.11;70.32
14757;BME280;62446;53.214;10.398;2022-10-16T17:43:36;101602.75;;;10.90;70.72
14757;BME280;62446;53.214;10.398;2022-10-16T17:46:40;101601.28;;;10.88;71.03
14757;BME280;62446;53.214;10.398;2022-10-16T17:49:43;101601.47;;;11.06;69.71
14757;BME280;62446;53.214;10.398;2022-10-16T17:52:47;101611.25;;;10.89;70.06
14757;BME280;62446;53.214;10.398;2022-10-16T17:55:54;101617.88;;;10.74;70.50
14757;BME280;62446;53.214;10.398;2022-10-16T17:59:01;101623.59;;;10.80;71.10
14757;BME280;62446;53.214;10.398;2022-10-16T18:02:05;101625.28;;;10.61;72.31
14757;BME280;62446;53.214;10.398;2022-10-16T18:05:09;101633.56;;;10.67;71.74
14757;BME280;62446;53.214;10.398;2022-10-16T18:08:13;101640.13;;;10.66;71.67
14757;BME280;62446;53.214;10.398;2022-10-16T18:11:19;101644.19;;;10.70;71.52
14757;BME280;62446;53.214;10.398;2022-10-16T18:14:23;101651.59;;;10.63;72.03
14757;BME280;62446;53.214;10.398;2022-10-16T18:17:26;101653.53;;;10.63;71.67
14757;BME280;62446;53.214;10.398;2022-10-16T18:20:31;101643.09;;;10.58;71.78
14757;BME280;62446;53.214;10.398;2022-10-16T18:23:36;101649.88;;;10.49;72.27
14757;BME280;62446;53.214;10.398;2022-10-16T18:26:41;101660.06;;;10.41;72.85
14757;BME280;62446;53.214;10.398;2022-10-16T18:29:44;101660.72;;;10.44;71.94
14757;BME280;62446;53.214;10.398;2022-10-16T18:32:48;101676.41;;;10.36;71.72
14757;BME280;62446;53.214;10.398;2022-10-16T18:35:52;101672.34;;;10.32;72.09
14757;BME280;62446;53.214;10.398;2022-10-16T18:38:56;101673.16;;;10.19;72.31
14757;BME280;62446;53.214;10.398;2022-10-16T18:42:01;101683.56;;;10.17;73.02
14757;BME280;62446;53.214;10.398;2022-10-16T18:45:06;101700.31;;;10.16;71.78
14757;BME280;62446;53.214;10.398;2022-10-16T18:48:10;101707.47;;;10.03;73.06
14757;BME280;62446;53.214;10.398;2022-10-16T18:51:16;101715.00;;;9.88;73.72
14757;BME280;62446;53.214;10.398;2022-10-16T18:54:20;101705.47;;;9.91;74.32
14757;BME280;62446;53.214;10.398;2022-10-16T18:57:26;101706.09;;;9.86;73.79
14757;BME280;62446;53.214;10.398;2022-10-16T19:00:32;101713.66;;;9.70;74.55
14757;BME280;62446;53.214;10.398;2022-10-16T19:03:36;101713.75;;;9.49;75.06
14757;BME280;62446;53.214;10.398;2022-10-16T19:06:41;101699.63;;;9.30;75.96
14757;BME280;62446;53.214;10.398;2022-10-16T19:09:45;101705.19;;;9.09;77.01
14757;BME280;62446;53.214;10.398;2022-10-16T19:12:50;101696.81;;;9.17;76.13
14757;BME280;62446;53.214;10.398;2022-10-16T19:15:54;101693.97;;;9.39;75.92
14757;BME280;62446;53.214;10.398;2022-10-16T19:19:01;101700.38;;;9.46;75.35
14757;BME280;62446;53.214;10.398;2022-10-16T19:22:05;101706.94;;;9.45;75.16
14757;BME280;62446;53.214;10.398;2022-10-16T19:25:18;101709.75;;;9.51;75.07
14757;BME280;62446;53.214;10.398;2022-10-16T19:28:24;101713.56;;;9.57;74.34
14757;BME280;62446;53.214;10.398;2022-10-16T19:31:29;101715.28;;;9.58;74.40
14757;BME280;62446;53.214;10.398;2022-10-16T19:34:33;101710.81;;;9.57;74.40
14757;BME280;62446;53.214;10.398;2022-10-16T19:37:37;101722.47;;;9.59;74.15
14757;BME280;62446;53.214;10.398;2022-10-16T19:40:40;101728.63;;;9.61;72.96
14757;BME280;62446;53.214;10.398;2022-10-16T19:43:45;101716.44;;;9.42;74.15
14757;BME280;62446;53.214;10.398;2022-10-16T19:46:49;101726.47;;;9.22;75.88
14757;BME280;62446;53.214;10.398;2022-10-16T19:49:53;101723.31;;;8.96;77.00
14757;BME280;62446;53.214;10.398;2022-10-16T19:52:56;101730.00;;;8.87;76.94
14757;BME280;62446;53.214;10.398;2022-10-16T19:56:00;101711.06;;;8.99;76.99
14757;BME280;62446;53.214;10.398;2022-10-16T19:59:07;101722.59;;;9.16;75.81
14757;BME280;62446;53.214;10.398;2022-10-16T20:02:12;101732.84;;;9.22;74.40
14757;BME280;62446;53.214;10.398;2022-10-16T20:05:16;101729.19;;;9.15;75.56
14757;BME280;62446;53.214;10.398;2022-10-16T20:08:20;101728.00;;;9.02;75.44
14757;BME280;62446;53.214;10.398;2022-10-16T20:11:25;101740.97;;;9.09;76.20
14757;BME280;62446;53.214;10.398;2022-10-16T20:14:31;101744.13;;;9.06;76.02
14757;BME280;62446;53.214;10.398;2022-10-16T20:17:34;101745.44;;;8.88;76.57
14757;BME280;62446;53.214;10.398;2022-10-16T20:20:38;101745.84;;;8.85;76.65
14757;BME280;62446;53.214;10.398;2022-10-16T20:23:42;101751.22;;;8.93;76.50
14757;BME280;62446;53.214;10.398;2022-10-16T20:26:45;101751.97;;;9.09;75.65
14757;BME280;62446;53.214;10.398;2022-10-16T20:29:50;101748.84;;;9.12;75.77
14757;BME280;62446;53.214;10.398;2022-10-16T20:32:54;101745.03;;;9.13;75.03
14757;BME280;62446;53.214;10.398;2022-10-16T20:35:58;101766.22;;;9.19;75.29
14757;BME280;62446;53.214;10.398;2022-10-16T20:39:02;101769.66;;;9.21;75.02
14757;BME280;62446;53.214;10.398;2022-10-16T20:42:06;101764.16;;;9.21;75.09
14757;BME280;62446;53.214;10.398;2022-10-16T20:45:11;101759.50;;;9.22;75.07
14757;BME280;62446;53.214;10.398;2022-10-16T20:48:14;101766.63;;;9.16;75.23
14757;BME280;62446;53.214;10.398;2022-10-16T20:51:19;101770.47;;;9.15;75.38
14757;BME280;62446;53.214;10.398;2022-10-16T20:54:24;101757.97;;;8.91;76.85
14757;BME280;62446;53.214;10.398;2022-10-16T20:57:27;101760.28;;;8.87;76.78
14757;BME280;62446;53.214;10.398;2022-10-16T21:00:33;101763.47;;;8.91;76.61
14757;BME280;62446;53.214;10.398;2022-10-16T21:03:37;101772.03;;;8.81;77.10
14757;BME280;62446;53.214;10.398;2022-10-16T21:06:40;101781.59;;;8.85;76.88
14757;BME280;62446;53.214;10.398;2022-10-16T21:09:46;101786.19;;;8.99;75.81
14757;BME280;62446;53.214;10.398;2022-10-16T21:12:52;101786.97;;;8.93;76.45
14757;BME280;62446;53.214;10.398;2022-10-16T21:15:57;101795.22;;;8.93;75.88
14757;BME280;62446;53.214;10.398;2022-10-16T21:19:01;101786.66;;;9.03;76.19
